Terminal Aerodrome Forecast
Issued by NWS

Home | Current Version | Previous Version | Text Only | Print | Product List | Glossary On
Versions: 1 2 3 4 5 6 7 8 9 10 11 12 13 14 15 16 17 18 19
000
FTUS41 KRNK 271721
TAFLWB
TAF
KLWB 271721Z 2718/2818 26005KT P6SM -SHRA VCTS SCT050CB OVC100
     FM272100 24004KT P6SM VCSH OVC050
     FM280000 00000KT P6SM OVC090
     FM280600 00000KT 3SM BR OVC070
     FM281000 23004KT 6SM SHRA OVC050=

USA.gov is the U.S. government's official web portal to all federal, state and local government web resources and services.